Born, Netherlands
Current Conditions -  °F | °C
As of 6:55 PM on Tuesday 21 Oct 2014 (Local Time) from EHBK Reporting Station
Clear Clear  
Wind Chill: 41°   Ceiling: Unl
Heat Index: 46°   Visibility: 6mi
Dew Point: 41°   Wind: 10mph
Humidity: 81%   Direction: 260°W
Pressure: 29.68"   Gusts: NA
Location:  51.03°N, 5.81°E
Report Text: EHBK 211655Z AUTO 26009KT 200V300 9999 NSC 08/05 Q1005 NOSIG
Loading
Personal Weather Stations






























Interactive Weather Map
Tropical Storm Tracking
New forecast layout! Learn more

10-Day Weather Forecast

Advertisements
Track Severe Weather on mobile